Time;durP1;ratioP1;P1;durP2;ratioP2;P2;SDS_P1;SDS_P2;PMS_P1;PMS_P2;Temp;Humidity;BMP_temperature;BMP_pressure;BME280_temperature;BME280_humidity;BME280_pressure;Samples;Min_cycle;Max_cycle;Signal;HPM_P1;HPM_P2
2021/10/23 00:01:24;;;;;;;7.80;5.67;;;;;;;23.06;55.98;100754.30;1794859;78;20907;-45
2021/10/23 00:03:50;;;;;;;7.80;6.10;;;;;;;23.10;56.07;100755.27;1796462;78;20997;-45
2021/10/23 00:06:16;;;;;;;11.22;6.80;;;;;;;23.13;56.16;100754.58;1792491;78;21319;-46
2021/10/23 00:08:42;;;;;;;8.53;5.87;;;;;;;23.15;56.23;100756.46;1796557;78;21001;-45
2021/10/23 00:11:08;;;;;;;8.63;6.45;;;;;;;23.16;56.25;100758.91;1788627;78;20948;-46
2021/10/23 00:13:34;;;;;;;8.93;6.12;;;;;;;23.17;56.21;100759.13;1800877;78;21488;-46
2021/10/23 00:16:00;;;;;;;9.50;6.40;;;;;;;23.19;56.16;100765.17;1791210;78;20915;-47
2021/10/23 00:18:26;;;;;;;10.05;6.33;;;;;;;23.21;56.09;100760.68;1787785;78;21616;-45
2021/10/23 00:20:52;;;;;;;8.50;6.22;;;;;;;23.23;56.02;100761.14;1801933;78;20956;-44
2021/10/23 00:23:18;;;;;;;8.98;6.28;;;;;;;23.24;55.97;100762.77;1801691;78;21468;-45
2021/10/23 00:25:44;;;;;;;8.03;6.17;;;;;;;23.22;55.91;100756.16;1798165;78;20950;-45
2021/10/23 00:28:10;;;;;;;9.95;6.28;;;;;;;23.22;55.86;100752.00;1802793;78;20999;-46
2021/10/23 00:30:36;;;;;;;8.85;6.12;;;;;;;23.22;55.82;100745.05;1808430;78;21118;-45
2021/10/23 00:33:02;;;;;;;8.68;5.72;;;;;;;23.22;55.78;100745.63;1787422;78;21097;-47
2021/10/23 00:35:30;;;;;;;8.15;6.00;;;;;;;23.21;55.73;100751.75;1786925;78;21085;-45
2021/10/23 00:37:56;;;;;;;9.98;6.67;;;;;;;23.20;55.72;100754.31;1798312;78;21042;-47
2021/10/23 00:40:23;;;;;;;9.63;6.25;;;;;;;23.19;55.69;100755.45;1796623;78;21006;-44
2021/10/23 00:42:48;;;;;;;9.20;6.67;;;;;;;23.19;55.68;100758.23;1786629;78;21128;-45
2021/10/23 00:45:15;;;;;;;8.58;6.33;;;;;;;23.18;55.67;100757.98;1788912;78;21054;-45
2021/10/23 00:47:41;;;;;;;9.68;6.47;;;;;;;23.17;55.65;100757.73;1783787;78;20899;-44
2021/10/23 00:50:08;;;;;;;8.90;6.20;;;;;;;23.16;55.64;100755.31;1801837;78;20899;-45
2021/10/23 00:52:34;;;;;;;8.73;6.45;;;;;;;23.15;55.66;100751.73;1796154;78;21132;-47
2021/10/23 00:55:00;;;;;;;9.30;5.95;;;;;;;23.15;55.65;100734.25;1753914;78;22010;-46
2021/10/23 00:57:26;;;;;;;6.97;5.35;;;;;;;23.14;55.65;100735.40;1789127;78;21087;-46
2021/10/23 00:59:52;;;;;;;7.85;5.80;;;;;;;23.13;55.65;100737.93;1786384;78;20931;-44
2021/10/23 01:02:18;;;;;;;7.70;5.72;;;;;;;23.11;55.66;100729.95;1801770;78;21093;-45
2021/10/23 01:04:44;;;;;;;8.03;5.95;;;;;;;23.10;55.66;100726.94;1800636;77;21370;-44
2021/10/23 01:07:10;;;;;;;7.62;6.50;;;;;;;23.09;55.67;100735.02;1794825;79;21132;-47
2021/10/23 01:09:38;;;;;;;8.13;5.75;;;;;;;23.09;55.67;100735.59;1820520;77;21031;-45
2021/10/23 01:12:08;;;;;;;7.53;5.80;;;;;;;23.09;55.68;100736.41;1794622;78;21111;-44
2021/10/23 01:14:35;;;;;;;7.10;5.67;;;;;;;23.08;55.69;100745.09;1845511;76;21024;-45
2021/10/23 01:17:01;;;;;;;8.80;5.80;;;;;;;23.07;55.69;100745.66;1822040;76;21541;-45
2021/10/23 01:19:27;;;;;;;7.20;5.95;;;;;;;23.06;55.72;100742.64;1855033;76;21160;-45
2021/10/23 01:21:53;;;;;;;8.68;6.12;;;;;;;23.06;55.72;100737.66;1843724;76;21016;-49
2021/10/23 01:24:20;;;;;;;8.00;6.30;;;;;;;23.05;55.72;100734.06;1847944;76;21052;-45
2021/10/23 01:26:46;;;;;;;9.75;6.40;;;;;;;23.05;55.74;100729.09;1847681;76;21548;-45
2021/10/23 01:29:14;;;;;;;7.97;6.00;;;;;;;23.03;55.75;100732.22;1846950;76;20874;-44
2021/10/23 01:31:41;;;;;;;6.87;5.78;;;;;;;23.04;55.73;100731.05;1852106;77;21274;-47
2021/10/23 01:34:20;;;;;;;9.18;6.28;;;;;;;23.03;55.74;100732.22;1850077;76;21025;-47
2021/10/23 01:36:50;;;;;;;7.40;6.12;;;;;;;23.03;55.77;100739.73;1849430;76;21048;-45
2021/10/23 01:39:17;;;;;;;7.33;5.70;;;;;;;23.02;55.76;100733.36;1840392;76;21095;-45
2021/10/23 01:41:43;;;;;;;7.03;5.42;;;;;;;23.02;55.75;100733.93;1848455;76;21044;-48
2021/10/23 01:44:11;;;;;;;7.85;5.60;;;;;;;23.02;55.78;100731.16;1847309;76;21127;-44
2021/10/23 01:46:37;;;;;;;8.13;6.30;;;;;;;23.01;55.80;100735.07;1832318;77;21037;-45
2021/10/23 01:49:05;;;;;;;6.95;5.70;;;;;;;23.00;55.80;100734.86;1808278;77;21294;-47
2021/10/23 01:51:32;;;;;;;8.45;6.67;;;;;;;23.00;55.81;100737.03;1811414;77;21551;-47
2021/10/23 01:54:03;;;;;;;8.15;6.08;;;;;;;22.99;55.82;100736.81;1812735;78;21117;-45
2021/10/23 01:56:30;;;;;;;8.55;6.22;;;;;;;22.99;55.81;100735.42;1798018;78;21181;-44
2021/10/23 01:58:56;;;;;;;8.38;5.87;;;;;;;22.99;55.81;100735.42;1814578;78;21432;-45
2021/10/23 02:01:22;;;;;;;7.78;6.22;;;;;;;22.98;55.82;100739.34;1808337;78;20928;-47
2021/10/23 02:03:48;;;;;;;8.03;6.17;;;;;;;22.98;55.83;100745.46;1809029;78;21114;-46
2021/10/23 02:06:14;;;;;;;7.62;6.22;;;;;;;22.98;55.82;100753.22;1799733;78;20906;-47
2021/10/23 02:08:40;;;;;;;9.55;5.92;;;;;;;22.99;55.82;100765.13;1800916;78;21145;-45
2021/10/23 02:11:06;;;;;;;7.53;6.10;;;;;;;22.98;55.82;100755.98;1814650;78;20961;-47
2021/10/23 02:13:33;;;;;;;7.90;6.12;;;;;;;22.97;55.82;100765.45;1801391;78;20957;-45
2021/10/23 02:15:59;;;;;;;9.93;6.40;;;;;;;22.98;55.82;100760.15;1811871;78;21481;-44
2021/10/23 02:18:25;;;;;;;7.17;6.25;;;;;;;22.98;55.83;100760.72;1814104;78;20864;-45
2021/10/23 02:20:51;;;;;;;7.42;5.75;;;;;;;22.98;55.81;100771.81;1816418;78;21534;-45
2021/10/23 02:23:17;;;;;;;8.13;6.00;;;;;;;22.96;55.82;100767.98;1821267;78;20961;-47
2021/10/23 02:25:43;;;;;;;7.90;6.50;;;;;;;22.97;55.80;100766.84;1812804;77;21500;-44
2021/10/23 02:28:09;;;;;;;8.70;6.10;;;;;;;22.97;55.80;100764.64;1822626;78;21018;-46
2021/10/23 02:30:35;;;;;;;7.95;6.00;;;;;;;22.98;55.82;100767.66;1785322;78;21712;-47
2021/10/23 02:33:01;;;;;;;7.70;6.28;;;;;;;22.97;55.80;100772.95;1851232;76;21255;-45
2021/10/23 02:35:27;;;;;;;7.08;5.87;;;;;;;22.97;55.80;100775.16;1848988;76;21468;-46
2021/10/23 02:37:53;;;;;;;7.62;5.97;;;;;;;22.97;55.80;100766.84;1851687;76;20968;-45
2021/10/23 02:40:19;;;;;;;7.15;5.95;;;;;;;22.97;55.79;100771.57;1851210;76;21059;-47
2021/10/23 02:42:45;;;;;;;7.33;5.87;;;;;;;22.97;55.82;100769.62;1843937;76;20866;-45
2021/10/23 02:45:11;;;;;;;7.28;6.03;;;;;;;22.96;55.80;100774.09;1845986;76;21569;-47
2021/10/23 02:47:37;;;;;;;8.40;6.25;;;;;;;22.96;55.79;100769.94;1845273;76;21031;-45
2021/10/23 02:50:05;;;;;;;7.05;5.75;;;;;;;22.97;55.79;100768.80;1801487;77;21601;-44
2021/10/23 02:52:31;;;;;;;8.25;5.90;;;;;;;22.96;55.79;100762.44;1838512;77;21046;-45
2021/10/23 02:54:57;;;;;;;6.80;5.58;;;;;;;22.99;55.81;100747.91;1797698;78;20903;-46
2021/10/23 02:57:23;;;;;;;6.53;5.42;;;;;;;23.02;55.89;100754.17;1843938;76;22479;-48
2021/10/23 02:59:49;;;;;;;6.10;5.47;;;;;;;23.04;55.99;100758.80;1848984;76;22020;-47
2021/10/23 03:02:15;;;;;;;6.67;5.60;;;;;;;23.07;56.06;100755.94;1848641;76;21064;-44
2021/10/23 03:04:42;;;;;;;8.68;5.72;;;;;;;23.09;56.08;100753.62;1847722;76;21567;-44
2021/10/23 03:07:08;;;;;;;7.75;5.60;;;;;;;23.12;56.03;100743.27;1847708;76;21001;-45
2021/10/23 03:09:34;;;;;;;7.87;6.20;;;;;;;23.12;55.98;100735.75;1851797;76;21121;-47
2021/10/23 03:12:00;;;;;;;7.40;5.65;;;;;;;23.15;55.90;100738.42;1843255;76;21120;-45
2021/10/23 03:14:26;;;;;;;6.60;5.90;;;;;;;23.16;55.84;100734.50;1848304;76;21633;-45
2021/10/23 03:16:53;;;;;;;8.00;5.70;;;;;;;23.16;55.76;100728.38;1847374;76;21032;-46
2021/10/23 03:19:19;;;;;;;6.70;5.60;;;;;;;23.17;55.71;100741.66;1843536;76;21328;-47
2021/10/23 03:21:45;;;;;;;6.40;5.37;;;;;;;23.17;55.67;100727.20;1854326;76;21108;-45
2021/10/23 03:24:11;;;;;;;7.62;5.53;;;;;;;23.17;55.63;100748.02;1846957;76;20885;-46
2021/10/23 03:26:37;;;;;;;6.37;5.20;;;;;;;23.17;55.55;100757.73;1850878;76;20940;-49
2021/10/23 03:29:03;;;;;;;7.17;5.87;;;;;;;23.16;55.52;100758.09;1843582;76;20846;-45
2021/10/23 03:31:30;;;;;;;6.67;5.65;;;;;;;23.16;55.50;100762.26;1844468;77;20927;-44
2021/10/23 03:33:57;;;;;;;8.15;5.72;;;;;;;23.15;55.50;100768.38;1847898;76;21135;-45
2021/10/23 03:36:22;;;;;;;7.65;5.58;;;;;;;23.14;55.47;100758.42;1846821;76;20986;-48
2021/10/23 03:38:48;;;;;;;7.60;6.08;;;;;;;23.14;55.45;100772.87;1841089;76;20889;-45
2021/10/23 03:41:15;;;;;;;7.40;5.70;;;;;;;23.12;55.44;100782.94;1802131;77;21489;-46
2021/10/23 03:43:41;;;;;;;7.62;6.25;;;;;;;23.12;55.41;100798.20;1795187;78;21010;-45
2021/10/23 03:46:07;;;;;;;7.90;6.58;;;;;;;23.10;55.42;100798.28;1799206;78;21610;-44
2021/10/23 03:48:33;;;;;;;6.85;6.08;;;;;;;23.10;55.40;100799.09;1785714;78;21059;-46
2021/10/23 03:50:59;;;;;;;6.67;5.90;;;;;;;23.09;55.40;100795.25;1793696;78;21701;-45
2021/10/23 03:53:25;;;;;;;7.12;5.60;;;;;;;23.08;55.39;100801.41;1800101;78;20849;-45
2021/10/23 03:55:51;;;;;;;7.20;6.00;;;;;;;23.08;55.38;100796.42;1795437;78;22016;-45
2021/10/23 03:58:17;;;;;;;7.70;6.28;;;;;;;23.06;55.43;100791.20;1797725;78;21161;-45
2021/10/23 04:00:43;;;;;;;8.78;6.30;;;;;;;23.06;55.39;100791.77;1792317;78;21566;-44
2021/10/23 04:03:09;;;;;;;6.87;6.00;;;;;;;23.04;55.38;100792.09;1788766;78;21152;-45
2021/10/23 04:05:35;;;;;;;6.80;6.03;;;;;;;23.04;55.39;100784.37;1784722;78;21551;-44
2021/10/23 04:08:01;;;;;;;7.25;6.03;;;;;;;23.03;55.39;100778.57;1794552;78;21034;-45
2021/10/23 04:10:28;;;;;;;7.05;5.90;;;;;;;23.04;55.38;100781.59;1801155;78;21553;-45
2021/10/23 04:12:54;;;;;;;7.92;5.97;;;;;;;23.02;55.37;100775.55;1805716;78;21033;-45
2021/10/23 04:15:20;;;;;;;7.83;6.00;;;;;;;23.01;55.38;100778.90;1807289;78;21619;-46
2021/10/23 04:17:46;;;;;;;7.87;6.05;;;;;;;23.00;55.38;100784.80;1805462;78;21584;-45
2021/10/23 04:20:12;;;;;;;7.35;5.90;;;;;;;23.01;55.36;100786.41;1812565;78;20892;-44
2021/10/23 04:22:39;;;;;;;7.25;5.75;;;;;;;23.00;55.38;100790.35;1807349;77;21449;-44
2021/10/23 04:25:07;;;;;;;6.78;6.08;;;;;;;23.00;55.36;100795.90;1811745;78;21019;-46
2021/10/23 04:27:33;;;;;;;7.60;6.15;;;;;;;23.00;55.35;100787.58;1801175;78;21038;-45
2021/10/23 04:29:59;;;;;;;7.33;5.70;;;;;;;22.98;55.35;100795.41;1801701;78;22261;-45
2021/10/23 04:32:25;;;;;;;7.65;6.17;;;;;;;22.98;55.34;100787.08;1808144;78;21114;-45
2021/10/23 04:34:51;;;;;;;7.37;6.35;;;;;;;22.97;55.35;100789.61;1806874;78;21463;-46
2021/10/23 04:37:18;;;;;;;7.08;5.92;;;;;;;22.97;55.35;100800.14;1798167;78;20991;-45
2021/10/23 04:39:44;;;;;;;6.15;5.55;;;;;;;22.97;55.36;100798.75;1809143;78;21401;-45
2021/10/23 04:42:10;;;;;;;7.08;5.95;;;;;;;22.97;55.39;100804.87;1793087;78;20887;-45
2021/10/23 04:44:36;;;;;;;7.15;5.83;;;;;;;22.96;55.44;100797.11;1806745;78;21517;-46
2021/10/23 04:47:03;;;;;;;6.78;5.72;;;;;;;22.96;55.48;100795.72;1805035;78;21230;-47
2021/10/23 04:49:29;;;;;;;6.87;5.40;;;;;;;22.96;55.51;100797.69;1812593;78;21037;-45
2021/10/23 04:51:55;;;;;;;6.97;5.00;;;;;;;22.96;55.53;100800.45;1807798;78;20934;-48
2021/10/23 04:54:21;;;;;;;7.15;5.25;;;;;;;22.96;55.56;100804.62;1804591;78;21123;-46
2021/10/23 04:56:47;;;;;;;10.75;5.80;;;;;;;22.97;55.59;100812.63;1799169;78;20988;-44
2021/10/23 04:59:13;;;;;;;9.23;4.40;;;;;;;23.01;55.73;100816.36;1799945;78;22587;-48
2021/10/23 05:01:40;;;;;;;7.50;4.42;;;;;;;23.04;55.90;100821.23;1799688;78;21133;-43
2021/10/23 05:04:06;;;;;;;6.97;5.17;;;;;;;23.07;56.03;100812.26;1799537;78;21109;-46
2021/10/23 05:06:32;;;;;;;7.00;5.22;;;;;;;23.11;56.14;100819.34;1799701;78;20866;-45
2021/10/23 05:08:58;;;;;;;5.95;5.08;;;;;;;23.14;56.14;100821.44;1796140;78;21618;-44
2021/10/23 05:11:24;;;;;;;5.85;4.80;;;;;;;23.15;56.12;100823.88;1795243;78;21148;-44
2021/10/23 05:13:50;;;;;;;7.65;4.95;;;;;;;23.17;56.06;100828.52;1794165;78;21056;-44
2021/10/23 05:16:16;;;;;;;9.73;7.47;;;;;;;23.19;55.98;100834.55;1802358;78;20954;-47
2021/10/23 05:18:42;;;;;;;18.05;9.35;;;;;;;23.20;55.90;100836.19;1793769;78;20954;-45
2021/10/23 05:21:11;;;;;;;18.07;8.60;;;;;;;23.21;55.74;100835.02;1789761;78;21040;-44
2021/10/23 05:23:38;;;;;;;9.75;6.97;;;;;;;23.21;55.54;100840.57;1759701;78;21303;-45
2021/10/23 05:26:04;;;;;;;11.05;6.72;;;;;;;23.20;55.42;100840.36;1792920;78;21328;-44
2021/10/23 05:28:30;;;;;;;13.43;6.60;;;;;;;23.20;55.35;100835.38;1799282;78;21128;-45
2021/10/23 05:30:56;;;;;;;11.15;6.58;;;;;;;23.20;55.32;100847.30;1794525;78;21005;-47
2021/10/23 05:33:22;;;;;;;10.78;5.60;;;;;;;23.20;55.32;100849.25;1798084;78;21001;-44
2021/10/23 05:35:48;;;;;;;10.35;6.17;;;;;;;23.19;55.34;100855.94;1789180;78;21164;-44
2021/10/23 05:38:14;;;;;;;14.18;7.12;;;;;;;23.18;55.37;100850.14;1794396;78;20891;-46
2021/10/23 05:40:40;;;;;;;11.68;6.12;;;;;;;23.17;55.41;100859.05;1790334;78;20891;-44
2021/10/23 05:43:06;;;;;;;8.70;6.28;;;;;;;23.18;55.46;100857.91;1790100;78;21620;-45
2021/10/23 05:45:32;;;;;;;15.23;6.62;;;;;;;23.17;55.51;100861.00;1785851;78;20919;-45
2021/10/23 05:47:58;;;;;;;9.33;5.67;;;;;;;23.15;55.59;100871.07;1788176;78;21976;-48
2021/10/23 05:50:24;;;;;;;12.05;7.15;;;;;;;23.14;55.65;100876.38;1790607;78;20892;-44
2021/10/23 05:52:50;;;;;;;11.75;6.55;;;;;;;23.13;55.68;100882.25;1799271;78;20867;-44
2021/10/23 05:55:16;;;;;;;9.35;6.10;;;;;;;23.12;55.73;100880.07;1792912;78;21161;-45
2021/10/23 05:57:43;;;;;;;11.48;6.70;;;;;;;23.11;55.76;100884.55;1803163;78;21007;-47
2021/10/23 06:00:11;;;;;;;10.93;5.65;;;;;;;23.09;55.78;100896.55;1794513;78;21240;-46
2021/10/23 06:02:38;;;;;;;10.55;5.90;;;;;;;23.08;55.82;100903.27;1803477;77;21626;-46
2021/10/23 06:05:05;;;;;;;10.53;6.65;;;;;;;23.06;55.83;100911.09;1813129;78;21109;-44
2021/10/23 06:07:37;;;;;;;10.93;5.45;;;;;;;23.06;55.85;100927.75;1789719;78;21003;-45
2021/10/23 06:10:10;;;;;;;9.83;5.90;;;;;;;23.04;55.85;100923.91;1798592;78;21069;-46
2021/10/23 06:12:36;;;;;;;10.20;5.70;;;;;;;23.03;55.88;100940.34;1810393;78;21286;-46
2021/10/23 06:15:04;;;;;;;10.68;5.80;;;;;;;23.02;55.89;100940.66;1811242;78;21521;-46
2021/10/23 06:17:30;;;;;;;7.97;6.00;;;;;;;23.02;55.89;100940.66;1818752;78;21003;-44
2021/10/23 06:19:56;;;;;;;8.85;6.22;;;;;;;23.00;55.91;100949.90;1801228;78;21102;-44
2021/10/23 06:22:22;;;;;;;8.65;6.00;;;;;;;22.99;55.94;100938.55;1822198;78;21113;-45
2021/10/23 06:24:48;;;;;;;9.38;5.62;;;;;;;22.99;55.96;100939.94;1811508;78;21298;-45
2021/10/23 06:27:14;;;;;;;7.47;5.08;;;;;;;22.98;55.97;100941.89;1796535;78;21191;-45
2021/10/23 06:29:40;;;;;;;7.65;5.62;;;;;;;22.97;55.97;100947.77;1812547;78;21507;-50
2021/10/23 06:32:06;;;;;;;9.05;5.75;;;;;;;22.96;55.98;100947.52;1812517;78;20927;-47
2021/10/23 06:34:33;;;;;;;9.10;5.75;;;;;;;22.95;55.97;100940.36;1803130;78;21042;-46
2021/10/23 06:36:59;;;;;;;11.75;5.28;;;;;;;22.95;55.96;100941.74;1814208;78;21555;-45
2021/10/23 06:39:25;;;;;;;11.30;5.92;;;;;;;22.93;55.99;100933.73;1813367;78;21458;-47
2021/10/23 06:41:51;;;;;;;7.33;5.53;;;;;;;22.92;55.97;100943.20;1797607;78;21001;-46
2021/10/23 06:44:17;;;;;;;9.73;4.75;;;;;;;22.92;55.99;100947.36;1818692;78;20902;-45
2021/10/23 06:46:43;;;;;;;9.55;5.78;;;;;;;22.91;56.00;100954.08;1801393;78;21006;-47
2021/10/23 06:49:09;;;;;;;7.45;4.80;;;;;;;22.90;56.00;100959.95;1812226;78;21916;-45
2021/10/23 06:51:35;;;;;;;7.30;4.95;;;;;;;22.90;56.01;100973.81;1795741;78;21057;-47
2021/10/23 06:54:02;;;;;;;10.48;5.85;;;;;;;22.90;56.00;100977.98;1796646;78;21040;-47
2021/10/23 06:56:28;;;;;;;8.53;5.53;;;;;;;22.89;55.99;100979.11;1818525;78;21650;-45
2021/10/23 06:58:55;;;;;;;9.85;6.17;;;;;;;22.89;56.00;100989.64;1810473;78;21090;-44
2021/10/23 07:01:22;;;;;;;7.87;5.12;;;;;;;22.87;56.00;100985.02;1810394;78;21964;-44
2021/10/23 07:03:48;;;;;;;7.30;5.00;;;;;;;22.88;55.99;100989.97;1803005;78;21495;-44
2021/10/23 07:06:14;;;;;;;9.80;5.40;;;;;;;22.87;55.98;101001.66;1800201;78;21119;-45
2021/10/23 07:08:40;;;;;;;7.50;5.30;;;;;;;22.87;55.98;101006.39;1812987;78;21635;-46
2021/10/23 07:11:08;;;;;;;8.28;4.65;;;;;;;22.85;55.98;101001.16;1816219;78;21070;-46
2021/10/23 07:13:34;;;;;;;7.22;4.80;;;;;;;22.88;56.00;101002.45;1804114;78;22199;-46
2021/10/23 07:16:00;;;;;;;7.55;4.67;;;;;;;22.89;56.08;101000.74;1811423;78;21572;-45
2021/10/23 07:18:26;;;;;;;8.18;4.97;;;;;;;22.91;56.17;101010.95;1800905;78;21091;-47
2021/10/23 07:20:52;;;;;;;8.10;5.30;;;;;;;22.94;56.25;101018.61;1795339;78;21038;-45
2021/10/23 07:23:18;;;;;;;7.75;4.87;;;;;;;22.96;56.27;101013.53;1812679;78;20981;-47
2021/10/23 07:25:46;;;;;;;7.65;5.22;;;;;;;22.97;56.23;101015.17;1812316;78;21075;-47
2021/10/23 07:28:13;;;;;;;8.08;4.92;;;;;;;22.99;56.16;101019.02;1800556;78;21008;-45
2021/10/23 07:30:39;;;;;;;6.83;4.75;;;;;;;23.00;56.09;101016.50;1805961;78;21002;-46
2021/10/23 07:33:05;;;;;;;7.15;5.00;;;;;;;23.01;56.02;101021.70;1794059;78;21621;-46
2021/10/23 07:35:32;;;;;;;6.92;5.00;;;;;;;23.01;55.97;101020.88;1803411;78;20895;-45
2021/10/23 07:37:58;;;;;;;7.03;4.85;;;;;;;23.01;55.93;101020.88;1801656;78;21214;-45
2021/10/23 07:40:24;;;;;;;6.08;4.67;;;;;;;23.00;55.89;101028.98;1812837;77;21688;-45
2021/10/23 07:42:50;;;;;;;6.92;5.17;;;;;;;22.99;55.85;101032.89;1819113;77;20924;-45
2021/10/23 07:45:16;;;;;;;6.80;5.05;;;;;;;22.98;55.82;101045.95;1812424;78;21654;-45
2021/10/23 07:47:42;;;;;;;6.80;4.65;;;;;;;22.98;55.78;101041.78;1827200;78;20909;-45
2021/10/23 07:50:09;;;;;;;7.72;5.15;;;;;;;22.97;55.73;101042.10;1801130;78;21022;-47
2021/10/23 07:52:39;;;;;;;7.40;5.03;;;;;;;22.96;55.71;101042.67;1803430;78;21088;-45
2021/10/23 07:55:07;;;;;;;7.40;5.47;;;;;;;22.95;55.69;101047.18;1801630;78;22185;-45
2021/10/23 07:57:35;;;;;;;6.67;5.30;;;;;;;22.94;55.68;101039.99;1815234;78;21050;-45
2021/10/23 08:00:03;;;;;;;6.25;4.90;;;;;;;22.92;55.68;101040.31;1802577;78;20998;-45
2021/10/23 08:02:30;;;;;;;7.08;4.95;;;;;;;22.91;55.69;101041.47;1821680;77;21086;-45
2021/10/23 08:04:56;;;;;;;6.55;4.72;;;;;;;22.90;55.68;101043.18;1848462;76;21032;-45
2021/10/23 08:07:22;;;;;;;7.35;5.10;;;;;;;22.89;55.64;101043.74;1845114;76;20966;-48
2021/10/23 08:09:48;;;;;;;6.30;4.95;;;;;;;22.88;55.67;101050.43;1845498;76;20890;-48
2021/10/23 08:12:14;;;;;;;6.65;4.75;;;;;;;22.87;55.65;101056.33;1850385;76;21025;-46
2021/10/23 08:14:41;;;;;;;9.68;6.05;;;;;;;22.86;55.60;101059.67;1845609;76;21912;-46
2021/10/23 08:17:07;;;;;;;7.45;5.58;;;;;;;22.86;55.60;101067.98;1846899;76;21057;-47
2021/10/23 08:19:33;;;;;;;7.72;5.10;;;;;;;22.85;55.57;101060.80;1851838;76;21631;-45
2021/10/23 08:22:00;;;;;;;7.12;4.65;;;;;;;22.84;55.59;101059.73;1848987;76;21070;-45
2021/10/23 08:24:26;;;;;;;6.50;4.80;;;;;;;22.83;55.59;101059.52;1841137;76;21103;-47
2021/10/23 08:26:51;;;;;;;6.95;4.95;;;;;;;22.83;55.56;101059.52;1849654;76;21050;-46
2021/10/23 08:29:18;;;;;;;7.05;4.62;;;;;;;22.82;55.59;101062.85;1850100;76;21364;-46
2021/10/23 08:31:44;;;;;;;7.67;5.03;;;;;;;22.81;55.56;101062.59;1856076;76;21036;-45
2021/10/23 08:34:10;;;;;;;5.87;5.05;;;;;;;22.82;55.58;101063.42;1845987;76;21201;-45
2021/10/23 08:36:36;;;;;;;6.53;4.60;;;;;;;22.80;55.55;101067.89;1850205;76;20885;-46
2021/10/23 08:39:04;;;;;;;7.50;4.83;;;;;;;22.79;55.56;101080.13;1845067;76;21639;-45
2021/10/23 08:41:30;;;;;;;7.08;4.80;;;;;;;22.80;55.56;101079.56;1854467;76;21059;-44
2021/10/23 08:43:57;;;;;;;7.00;4.90;;;;;;;22.79;55.55;101072.41;1847031;76;21001;-46
2021/10/23 08:46:24;;;;;;;7.85;5.00;;;;;;;22.79;55.55;101069.62;1859495;76;21488;-46
2021/10/23 08:48:52;;;;;;;5.83;4.30;;;;;;;22.78;55.53;101070.77;1845720;76;21460;-45
2021/10/23 08:51:19;;;;;;;5.87;4.45;;;;;;;22.78;55.54;101071.58;1854160;76;21147;-45
2021/10/23 08:53:46;;;;;;;6.30;4.75;;;;;;;22.78;55.53;101067.98;1845519;76;21105;-47
2021/10/23 08:56:12;;;;;;;6.25;4.67;;;;;;;22.78;55.53;101069.38;1779266;77;21391;-45
2021/10/23 08:58:39;;;;;;;7.15;4.80;;;;;;;22.78;55.53;101066.60;1845499;76;21048;-46
2021/10/23 09:01:08;;;;;;;6.30;4.60;;;;;;;22.76;55.53;101076.05;1802152;77;21023;-46
2021/10/23 09:03:34;;;;;;;6.92;4.50;;;;;;;22.77;55.53;101082.42;1759703;78;21285;-47
2021/10/23 09:06:00;;;;;;;6.90;4.12;;;;;;;22.76;55.53;101078.83;1798589;78;20824;-45
2021/10/23 09:08:26;;;;;;;5.55;4.58;;;;;;;22.76;55.52;101076.63;1795064;78;21071;-48
2021/10/23 09:10:52;;;;;;;5.20;4.33;;;;;;;22.76;55.53;101083.56;1804104;78;20981;-44
2021/10/23 09:13:30;;;;;;;5.78;4.22;;;;;;;22.74;55.52;101081.10;1792180;78;20988;-48
2021/10/23 09:15:56;;;;;;;6.37;5.10;;;;;;;22.75;55.53;101081.36;1800134;78;21126;-45
2021/10/23 09:18:44;;;;;;;5.22;4.28;;;;;;;22.73;55.53;101073.95;1785227;78;21009;-45
2021/10/23 09:21:21;;;;;;;6.45;3.92;;;;;;;22.72;55.53;101077.85;1804597;78;21452;-45
2021/10/23 09:23:49;;;;;;;5.15;3.92;;;;;;;22.72;55.53;101079.23;1802860;78;21418;-45
2021/10/23 09:26:36;;;;;;;5.85;3.90;;;;;;;22.73;55.54;101085.61;1786007;78;21560;-46
2021/10/23 09:29:21;;;;;;;6.42;4.22;;;;;;;22.71;55.53;101087.31;1805834;78;22017;-45
2021/10/23 09:31:47;;;;;;;5.60;4.03;;;;;;;22.69;55.51;101087.40;1805015;78;21148;-44
2021/10/23 09:34:18;;;;;;;6.47;4.17;;;;;;;22.69;55.52;101091.56;1797199;78;21038;-45
2021/10/23 09:36:53;;;;;;;4.85;3.70;;;;;;;22.69;55.51;101092.38;1793830;78;21059;-47
2021/10/23 09:39:31;;;;;;;5.83;3.60;;;;;;;22.68;55.52;101089.89;1795534;78;21567;-46
2021/10/23 09:42:16;;;;;;;5.03;3.83;;;;;;;22.68;55.52;101086.55;1796657;78;22553;-45
2021/10/23 09:47:33;;;;;;;5.75;3.60;;;;;;;22.66;55.53;101096.34;1803155;78;21061;-45
2021/10/23 09:50:16;;;;;;;5.05;4.15;;;;;;;22.65;55.53;101089.98;1785326;78;21314;-45
2021/10/23 09:53:10;;;;;;;6.10;3.58;;;;;;;22.65;55.53;101089.98;1787790;78;21602;-47
2021/10/23 09:55:54;;;;;;;5.67;4.10;;;;;;;22.65;55.54;101094.70;1801597;78;21865;-46
2021/10/23 09:58:27;;;;;;;4.35;3.67;;;;;;;22.64;55.52;101097.23;1812371;78;21070;-46
2021/10/23 10:00:54;;;;;;;5.08;3.75;;;;;;;22.63;55.53;101092.25;1804985;78;21489;-46
2021/10/23 10:03:22;;;;;;;4.10;3.40;;;;;;;22.62;55.53;101096.16;1790389;78;21144;-45
2021/10/23 10:05:56;;;;;;;5.28;3.62;;;;;;;22.63;55.53;101103.34;1785974;78;21079;-45
2021/10/23 10:08:23;;;;;;;5.75;4.17;;;;;;;22.62;55.54;101101.70;1802104;78;21469;-45
2021/10/23 10:10:49;;;;;;;4.60;3.50;;;;;;;22.63;55.54;101105.30;1782718;78;21052;-48
2021/10/23 10:13:21;;;;;;;4.65;3.72;;;;;;;22.62;55.54;101097.54;1807305;78;21440;-45
2021/10/23 10:15:48;;;;;;;4.80;3.47;;;;;;;22.63;55.54;101100.56;1809281;78;21520;-45
2021/10/23 10:18:15;;;;;;;4.87;3.62;;;;;;;22.63;55.54;101097.80;1791311;78;20987;-45
2021/10/23 10:20:50;;;;;;;4.90;3.50;;;;;;;22.63;55.55;101088.09;1807081;78;21097;-45
2021/10/23 10:23:22;;;;;;;4.75;3.65;;;;;;;22.63;55.54;101086.70;1784656;78;21073;-45
2021/10/23 10:26:34;;;;;;;5.37;3.52;;;;;;;22.61;55.54;101082.06;1785195;78;21124;-45
2021/10/23 10:29:25;;;;;;;6.03;3.87;;;;;;;22.62;55.56;101080.08;1798910;78;22187;-46
2021/10/23 10:32:08;;;;;;;6.05;3.70;;;;;;;22.61;55.53;101079.29;1810832;78;26837;-47
2021/10/23 10:40:32;;;;;;;4.85;3.40;;;;;;;22.59;55.54;101073.80;1853092;76;20939;-47
2021/10/23 10:43:06;;;;;;;4.47;3.27;;;;;;;22.59;55.54;101070.47;1841496;77;21009;-46
2021/10/23 10:45:47;;;;;;;4.97;3.20;;;;;;;22.59;55.55;101066.30;1836013;77;21017;-48
2021/10/23 10:48:23;;;;;;;4.33;3.15;;;;;;;22.58;55.55;101063.28;1844752;76;21447;-48
2021/10/23 10:51:11;;;;;;;4.83;3.55;;;;;;;22.58;55.54;101063.28;1831882;77;21039;-47
2021/10/23 10:53:53;;;;;;;3.72;2.92;;;;;;;22.58;55.57;101063.84;1800858;78;21035;-52
2021/10/23 10:56:19;;;;;;;4.30;3.20;;;;;;;22.57;55.57;101058.08;1799288;78;21054;-47
2021/10/23 10:58:57;;;;;;;4.83;3.40;;;;;;;22.56;55.57;101054.48;1797418;78;21081;-51
2021/10/23 11:01:27;;;;;;;4.35;3.30;;;;;;;22.56;55.57;101055.88;1787571;78;21579;-48
2021/10/23 11:04:07;;;;;;;4.45;3.02;;;;;;;22.57;55.59;101061.67;1785332;78;21081;-48
2021/10/23 11:06:45;;;;;;;4.55;3.70;;;;;;;22.58;55.59;101059.69;1792804;78;21787;-47
2021/10/23 11:09:20;;;;;;;4.97;3.22;;;;;;;22.57;55.58;101060.28;1805725;78;21037;-48
2021/10/23 11:11:57;;;;;;;3.83;3.00;;;;;;;22.58;55.59;101058.30;1792915;78;21002;-49
2021/10/23 11:14:31;;;;;;;4.62;3.27;;;;;;;22.58;55.59;101058.30;1844277;76;21092;-46
2021/10/23 11:17:03;;;;;;;4.37;3.02;;;;;;;22.57;55.58;101052.53;1845407;76;21037;-48
2021/10/23 11:19:49;;;;;;;4.80;3.02;;;;;;;22.57;55.57;101053.35;1844458;76;21113;-44
2021/10/23 11:22:32;;;;;;;3.45;3.08;;;;;;;22.57;55.58;101054.73;1856221;76;21060;-44
2021/10/23 11:25:09;;;;;;;5.03;3.02;;;;;;;22.57;55.57;101057.52;1840355;76;21073;-45
2021/10/23 11:27:43;;;;;;;3.95;2.87;;;;;;;22.58;55.58;101056.91;1846270;76;21420;-45
2021/10/23 11:30:28;;;;;;;3.95;3.22;;;;;;;22.57;55.56;101053.35;1841762;76;21022;-47
2021/10/23 11:32:57;;;;;;;5.10;3.08;;;;;;;22.57;55.57;101041.44;1845645;76;21438;-45
2021/10/23 11:35:47;;;;;;;4.58;3.25;;;;;;;22.56;55.55;101046.17;1849203;76;21512;-44
2021/10/23 11:38:25;;;;;;;3.85;3.05;;;;;;;22.57;55.57;101051.97;1838010;76;21080;-46